Time;durP1;ratioP1;P1;durP2;ratioP2;P2;SDS_P1;SDS_P2;PMS_P1;PMS_P2;Temp;Humidity;BMP_temperature;BMP_pressure;BME280_temperature;BME280_humidity;BME280_pressure;Samples;Min_cycle;Max_cycle;Signal;HPM_P1;HPM_P2
2021/01/20 00:00:02;;;;;;;1999.90;999.90;;;5.90;99.90;;;;;;5057877;28;20206;-85
2021/01/20 00:02:28;;;;;;;1999.90;999.90;;;5.90;99.90;;;;;;5058417;28;20438;-85
2021/01/20 00:04:54;;;;;;;1999.90;999.90;;;5.90;99.90;;;;;;5058351;28;20553;-85
2021/01/20 00:07:19;;;;;;;1999.90;999.90;;;5.90;99.90;;;;;;5058189;28;20172;-85
2021/01/20 00:09:45;;;;;;;1999.90;999.90;;;5.90;99.90;;;;;;5075929;28;20160;-85
2021/01/20 00:12:11;;;;;;;1999.90;999.90;;;5.90;99.90;;;;;;5058689;28;20217;-85
2021/01/20 00:14:42;;;;;;;1999.90;999.90;;;5.90;99.90;;;;;;5076398;28;20207;-87
2021/01/20 00:17:08;;;;;;;1999.90;999.90;;;6.00;99.90;;;;;;5059445;28;20171;-85
2021/01/20 00:19:33;;;;;;;1999.90;999.90;;;6.00;99.90;;;;;;5058157;28;20167;-85
2021/01/20 00:21:59;;;;;;;1999.90;999.90;;;5.90;99.90;;;;;;5075992;28;20202;-85
2021/01/20 00:24:25;;;;;;;1999.90;999.90;;;5.90;99.90;;;;;;5076654;28;20535;-85
2021/01/20 00:26:50;;;;;;;1999.90;999.90;;;5.90;99.90;;;;;;5075966;28;20168;-85
2021/01/20 00:29:19;;;;;;;1999.90;999.90;;;5.90;99.90;;;;;;5076744;28;20170;-87
2021/01/20 00:31:46;;;;;;;1999.90;999.90;;;5.90;99.90;;;;;;5076445;28;20183;-87
2021/01/20 00:34:12;;;;;;;1999.90;999.90;;;5.80;99.90;;;;;;5076316;28;20527;-87
2021/01/20 00:36:40;;;;;;;1999.90;999.90;;;5.70;99.90;;;;;;5058509;28;20198;-87
2021/01/20 00:39:09;;;;;;;1999.90;999.90;;;5.70;99.90;;;;;;5058564;28;20412;-87
2021/01/20 00:41:35;;;;;;;1999.90;999.90;;;5.70;99.90;;;;;;5076093;28;20156;-87
2021/01/20 00:44:01;;;;;;;1999.90;999.90;;;5.70;99.90;;;;;;5077740;28;20175;-87
2021/01/20 00:46:26;;;;;;;1999.90;999.90;;;5.60;99.90;;;;;;5059149;28;20639;-87
2021/01/20 00:48:52;;;;;;;1999.90;999.90;;;5.60;99.90;;;;;;5080539;28;20171;-87
2021/01/20 00:51:18;;;;;;;1999.90;999.90;;;5.60;99.90;;;;;;5080980;28;20163;-87
2021/01/20 00:53:43;;;;;;;1999.90;999.90;;;5.50;99.90;;;;;;5063230;28;20225;-87
2021/01/20 00:56:10;;;;;;;1999.90;999.90;;;5.40;99.90;;;;;;5079844;28;20631;-87
2021/01/20 00:58:39;;;;;;;1999.90;999.90;;;5.40;99.90;;;;;;5063292;28;20198;-87
2021/01/20 01:01:05;;;;;;;1999.90;999.90;;;5.40;99.90;;;;;;5062956;28;20198;-87
2021/01/20 01:03:30;;;;;;;1999.90;999.90;;;5.40;99.90;;;;;;5062893;28;20191;-87
2021/01/20 01:05:56;;;;;;;1999.90;999.90;;;5.30;99.90;;;;;;5062996;28;20209;-87
2021/01/20 01:08:25;;;;;;;1999.90;999.90;;;5.30;99.90;;;;;;5063126;28;20168;-87
2021/01/20 01:10:52;;;;;;;1999.90;999.90;;;5.30;99.90;;;;;;5063361;28;20164;-87
2021/01/20 01:13:19;;;;;;;1999.90;999.90;;;5.20;99.90;;;;;;5068458;28;20176;-87
2021/01/20 01:15:45;;;;;;;1999.90;999.90;;;5.20;99.90;;;;;;5068733;28;20222;-87
2021/01/20 01:18:10;;;;;;;1999.90;999.90;;;5.20;99.90;;;;;;5064374;28;20634;-87
2021/01/20 01:20:39;;;;;;;1999.90;999.90;;;5.20;99.90;;;;;;5062919;28;20213;-87
2021/01/20 01:23:04;;;;;;;1999.90;999.90;;;5.20;99.90;;;;;;5080093;28;20160;-87
2021/01/20 01:25:30;;;;;;;1999.90;999.90;;;5.20;99.90;;;;;;5079997;28;20223;-87
2021/01/20 01:27:56;;;;;;;1999.90;999.90;;;5.20;99.90;;;;;;5061557;28;20164;-86
2021/01/20 01:30:22;;;;;;;1999.90;999.90;;;5.20;99.90;;;;;;5078514;28;20175;-86
2021/01/20 01:32:48;;;;;;;1999.90;999.90;;;5.20;99.90;;;;;;5061370;28;20172;-86
2021/01/20 01:35:16;;;;;;;1999.90;999.90;;;5.10;99.90;;;;;;5061611;28;20191;-87
2021/01/20 01:37:42;;;;;;;1999.90;999.90;;;5.20;99.90;;;;;;5061025;28;20203;-86
2021/01/20 01:40:08;;;;;;;1999.90;999.90;;;5.30;99.90;;;;;;5061046;28;20535;-86
2021/01/20 01:42:34;;;;;;;1999.90;999.90;;;5.30;99.90;;;;;;5060864;28;20227;-86
2021/01/20 01:45:00;;;;;;;1999.90;999.90;;;5.30;99.90;;;;;;5078564;28;20214;-87
2021/01/20 01:47:26;;;;;;;1999.90;999.90;;;5.30;99.90;;;;;;5079288;28;20406;-86
2021/01/20 01:49:56;;;;;;;1999.90;999.90;;;5.40;99.90;;;;;;5078682;28;20245;-87
2021/01/20 01:52:22;;;;;;;1999.90;999.90;;;5.50;99.90;;;;;;5078989;28;20168;-86
2021/01/20 01:54:52;;;;;;;1999.90;999.90;;;5.50;99.90;;;;;;5077638;28;20266;-84
2021/01/20 01:57:19;;;;;;;1999.90;999.90;;;5.60;99.90;;;;;;5060750;28;20277;-87
2021/01/20 01:59:45;;;;;;;1999.90;999.90;;;5.60;99.90;;;;;;5077734;28;20187;-86
2021/01/20 02:02:11;;;;;;;1999.90;999.90;;;5.60;99.90;;;;;;5078546;28;20196;-86
2021/01/20 02:04:37;;;;;;;1999.90;999.90;;;5.60;99.90;;;;;;5059640;28;20426;-86
2021/01/20 02:07:02;;;;;;;1999.90;999.90;;;5.60;99.90;;;;;;5061161;28;20265;-87
2021/01/20 02:09:29;;;;;;;1999.90;999.90;;;5.60;99.90;;;;;;5059776;28;20581;-87
2021/01/20 02:12:39;;;;;;;1999.90;999.90;;;5.70;99.90;;;;;;5060260;28;20444;-87
2021/01/20 02:15:14;;;;;;;1999.90;999.90;;;5.70;99.90;;;;;;4960828;28;20195;-87
2021/01/20 02:17:46;;;;;;;1999.90;999.90;;;5.70;99.90;;;;;;5048487;28;20714;-87
2021/01/20 02:20:30;;;;;;;1999.90;999.90;;;5.70;99.90;;;;;;5060716;28;20679;-86
2021/01/20 02:23:04;;;;;;;1999.90;999.90;;;5.70;99.90;;;;;;5059821;28;20627;-87
2021/01/20 02:25:33;;;;;;;1999.90;999.90;;;5.70;99.90;;;;;;5078313;28;20205;-87
2021/01/20 02:28:24;;;;;;;1999.90;999.90;;;5.80;99.90;;;;;;5077954;28;20168;-84
2021/01/20 02:30:50;;;;;;;1999.90;999.90;;;5.80;99.90;;;;;;5077577;28;20156;-87
2021/01/20 02:33:24;;;;;;;1999.90;999.90;;;5.80;99.90;;;;;;5078746;28;20568;-87
2021/01/20 02:35:56;;;;;;;1999.90;999.90;;;5.80;99.90;;;;;;5061030;28;20225;-87
2021/01/20 02:38:24;;;;;;;1999.90;999.90;;;5.80;99.90;;;;;;5077553;28;20168;-87
2021/01/20 02:40:50;;;;;;;1999.90;999.90;;;5.90;99.90;;;;;;5059551;28;20321;-86
2021/01/20 02:43:23;;;;;;;1999.90;999.90;;;5.90;99.90;;;;;;5076950;28;20199;-86
2021/01/20 02:45:49;;;;;;;1999.90;999.90;;;5.90;99.90;;;;;;5058630;28;20172;-87
2021/01/20 02:48:15;;;;;;;1999.90;999.90;;;5.90;99.90;;;;;;5077553;28;20611;-86
2021/01/20 02:50:41;;;;;;;1999.90;999.90;;;5.90;99.90;;;;;;5059530;28;20174;-86
2021/01/20 02:53:12;;;;;;;1999.90;999.90;;;6.00;99.90;;;;;;5059933;28;20175;-87
2021/01/20 02:55:43;;;;;;;1999.90;999.90;;;6.00;99.90;;;;;;5059818;28;20195;-86
2021/01/20 02:58:23;;;;;;;1999.90;999.90;;;6.00;99.90;;;;;;5059622;28;20167;-87
2021/01/20 03:00:51;;;;;;;1999.90;999.90;;;6.00;99.90;;;;;;5077642;28;20152;-86
2021/01/20 03:03:20;;;;;;;1999.90;999.90;;;6.00;99.90;;;;;;5131567;22;20277;-81
2021/01/20 03:05:48;;;;;;;1999.90;999.90;;;6.00;99.90;;;;;;5079907;28;20160;-81
2021/01/20 03:08:17;;;;;;;1999.90;999.90;;;6.00;99.90;;;;;;5079287;28;20227;-81
2021/01/20 03:10:45;;;;;;;1999.90;999.90;;;6.10;99.90;;;;;;5077533;28;20263;-82
2021/01/20 03:13:14;;;;;;;1999.90;999.90;;;6.10;99.90;;;;;;5078427;28;20175;-81
2021/01/20 03:15:44;;;;;;;1999.90;999.90;;;6.10;99.90;;;;;;5078320;28;20198;-82
2021/01/20 03:18:13;;;;;;;1999.90;999.90;;;6.20;99.90;;;;;;5079980;28;20167;-81
2021/01/20 03:20:41;;;;;;;1999.90;999.90;;;6.20;99.90;;;;;;5079585;28;20171;-82
2021/01/20 03:23:10;;;;;;;1999.90;999.90;;;6.20;99.90;;;;;;5079932;28;20213;-81
2021/01/20 03:25:36;;;;;;;1999.90;999.90;;;6.20;99.90;;;;;;5079217;28;20164;-81
2021/01/20 03:28:12;;;;;;;1999.90;999.90;;;6.20;99.90;;;;;;5079033;28;20166;-81
2021/01/20 03:30:38;;;;;;;1999.90;999.90;;;6.20;99.90;;;;;;5079354;28;20381;-81
2021/01/20 03:33:14;;;;;;;1999.90;999.90;;;6.20;99.90;;;;;;5080315;28;20170;-81
2021/01/20 03:36:15;;;;;;;1999.90;999.90;;;6.20;99.90;;;;;;5080672;28;20186;-81
2021/01/20 03:38:41;;;;;;;1999.90;999.90;;;6.20;99.90;;;;;;5077301;28;20176;-81
2021/01/20 03:41:15;;;;;;;1999.90;999.90;;;6.20;99.90;;;;;;5079310;28;20171;-81
2021/01/20 03:43:43;;;;;;;1999.90;999.90;;;6.20;99.90;;;;;;5079421;28;20374;-81
2021/01/20 03:46:18;;;;;;;1999.90;999.90;;;6.20;99.90;;;;;;5079431;28;20160;-81
2021/01/20 03:48:46;;;;;;;1999.90;999.90;;;6.20;99.90;;;;;;5078256;28;20158;-81
2021/01/20 03:51:16;;;;;;;1999.90;999.90;;;6.10;99.90;;;;;;5079414;28;20239;-81
2021/01/20 03:53:42;;;;;;;1999.90;999.90;;;6.20;99.90;;;;;;5079543;28;20192;-81
2021/01/20 03:56:16;;;;;;;1999.90;999.90;;;6.20;99.90;;;;;;5077835;28;20174;-81
2021/01/20 03:58:53;;;;;;;1999.90;999.90;;;6.20;99.90;;;;;;5078667;28;20190;-81
2021/01/20 04:01:24;;;;;;;1999.90;999.90;;;6.20;99.90;;;;;;5078556;28;20695;-81
2021/01/20 04:03:58;;;;;;;1999.90;999.90;;;6.20;99.90;;;;;;5079990;28;20179;-81
2021/01/20 04:06:33;;;;;;;1999.90;999.90;;;6.20;99.90;;;;;;5080570;28;20139;-81
2021/01/20 04:09:07;;;;;;;1999.90;999.90;;;6.20;99.90;;;;;;5078792;28;20147;-81
2021/01/20 04:11:41;;;;;;;1999.90;999.90;;;6.30;99.90;;;;;;5077808;28;20155;-81
2021/01/20 04:14:10;;;;;;;1999.90;999.90;;;6.30;99.90;;;;;;5077736;28;20237;-81
2021/01/20 04:16:47;;;;;;;1999.90;999.90;;;6.40;99.90;;;;;;5078795;28;20219;-81
2021/01/20 04:19:28;;;;;;;1999.90;999.90;;;6.40;99.90;;;;;;5078557;28;20227;-81
2021/01/20 04:21:59;;;;;;;1999.90;999.90;;;6.50;99.90;;;;;;5079481;28;20144;-80
2021/01/20 04:24:31;;;;;;;1999.90;999.90;;;6.60;99.90;;;;;;5083146;28;20657;-81
2021/01/20 04:27:02;;;;;;;1999.90;999.90;;;6.60;99.90;;;;;;5082157;28;20213;-81
2021/01/20 04:29:39;;;;;;;1999.90;999.90;;;6.70;99.90;;;;;;5083056;28;20139;-81
2021/01/20 04:32:13;;;;;;;1999.90;999.90;;;6.70;99.90;;;;;;5083016;28;20154;-81
2021/01/20 04:35:14;;;;;;;1999.90;999.90;;;6.80;99.90;;;;;;5082487;28;20661;-81
2021/01/20 04:37:42;;;;;;;1999.90;999.90;;;6.80;99.90;;;;;;5061827;28;20175;-81
2021/01/20 04:40:18;;;;;;;1999.90;999.90;;;6.90;99.90;;;;;;5082359;28;20163;-81
2021/01/20 04:43:13;;;;;;;1999.90;999.90;;;6.90;99.90;;;;;;5082772;28;20626;-81
2021/01/20 04:45:45;;;;;;;1999.90;999.90;;;6.90;99.90;;;;;;5082804;28;20206;-81
2021/01/20 04:48:12;;;;;;;1999.90;999.90;;;6.90;99.90;;;;;;5081732;28;20164;-81
2021/01/20 04:50:47;;;;;;;1999.90;999.90;;;7.00;99.90;;;;;;5082306;28;20184;-81
2021/01/20 04:53:18;;;;;;;1999.90;999.90;;;7.00;99.90;;;;;;5082588;28;20152;-81
2021/01/20 04:55:58;;;;;;;1999.90;999.90;;;6.90;99.90;;;;;;5083077;28;20202;-81
2021/01/20 04:58:29;;;;;;;1999.90;999.90;;;6.90;99.90;;;;;;5082588;28;20141;-81
2021/01/20 05:01:17;;;;;;;1999.90;999.90;;;6.80;99.90;;;;;;5081058;28;20179;-81
2021/01/20 05:03:49;;;;;;;1999.90;999.90;;;6.70;99.90;;;;;;5081340;28;20278;-81
2021/01/20 05:06:26;;;;;;;1999.90;999.90;;;6.60;99.90;;;;;;5082195;28;20171;-81
2021/01/20 05:08:55;;;;;;;1999.90;999.90;;;6.60;99.90;;;;;;5082633;28;20598;-81
2021/01/20 05:11:43;;;;;;;1999.90;999.90;;;6.50;99.90;;;;;;5083449;28;20163;-81
2021/01/20 05:14:41;;;;;;;1999.90;999.90;;;6.40;99.90;;;;;;5081590;28;20182;-81
2021/01/20 05:17:18;;;;;;;1999.90;999.90;;;6.30;99.90;;;;;;5082198;28;20156;-81
2021/01/20 05:20:09;;;;;;;1999.90;999.90;;;6.20;99.90;;;;;;5082629;28;20144;-81
2021/01/20 05:22:57;;;;;;;1999.90;999.90;;;6.20;99.90;;;;;;5080726;28;20178;-81
2021/01/20 05:25:27;;;;;;;1999.90;999.90;;;6.20;99.90;;;;;;5082324;28;20148;-81
2021/01/20 05:27:53;;;;;;;1999.90;999.90;;;6.20;99.90;;;;;;5083053;28;20255;-81
2021/01/20 05:30:19;;;;;;;1999.90;999.90;;;6.10;99.90;;;;;;5082391;28;20241;-81
2021/01/20 05:32:54;;;;;;;1999.90;999.90;;;6.20;99.90;;;;;;5081152;28;20163;-81
2021/01/20 05:35:20;;;;;;;1999.90;999.90;;;6.10;99.90;;;;;;5081635;28;20184;-81
2021/01/20 05:37:47;;;;;;;1999.90;999.90;;;6.10;99.90;;;;;;5081732;28;20243;-81
2021/01/20 05:40:18;;;;;;;1999.90;999.90;;;6.00;99.90;;;;;;5081919;28;20417;-81
2021/01/20 05:42:49;;;;;;;1999.90;999.90;;;6.00;99.90;;;;;;5082120;28;20182;-81
2021/01/20 05:45:16;;;;;;;1999.90;999.90;;;5.90;99.90;;;;;;5081877;28;20210;-81
2021/01/20 05:48:08;;;;;;;1999.90;999.90;;;5.90;99.90;;;;;;5082288;28;20594;-81
2021/01/20 05:50:35;;;;;;;1999.90;999.90;;;5.90;99.90;;;;;;5080839;28;20198;-81
2021/01/20 05:53:11;;;;;;;1999.90;999.90;;;5.80;99.90;;;;;;5083083;28;20175;-81
2021/01/20 05:55:38;;;;;;;1999.90;999.90;;;5.80;99.90;;;;;;5081321;28;20217;-81
2021/01/20 05:58:07;;;;;;;1999.90;999.90;;;5.80;99.90;;;;;;5081873;28;20192;-81
2021/01/20 06:00:33;;;;;;;1999.90;999.90;;;5.80;99.90;;;;;;5081946;28;20161;-81
2021/01/20 06:02:59;;;;;;;1999.90;999.90;;;5.80;99.90;;;;;;5079794;28;20217;-80
2021/01/20 06:05:26;;;;;;;1999.90;999.90;;;5.80;99.90;;;;;;5080020;28;20251;-81
2021/01/20 06:07:53;;;;;;;1999.90;999.90;;;5.80;99.90;;;;;;5081139;28;20406;-81
2021/01/20 06:10:20;;;;;;;1999.90;999.90;;;5.80;99.90;;;;;;5080970;28;20182;-81
2021/01/20 06:12:47;;;;;;;1999.90;999.90;;;5.80;99.90;;;;;;5080385;28;20164;-81
2021/01/20 06:15:13;;;;;;;1999.90;999.90;;;5.90;99.90;;;;;;5079882;28;20226;-81
2021/01/20 06:17:46;;;;;;;1999.90;999.90;;;5.80;99.90;;;;;;5080744;28;20156;-81
2021/01/20 06:20:12;;;;;;;1999.90;999.90;;;5.90;99.90;;;;;;5080722;28;20164;-81
2021/01/20 06:22:47;;;;;;;1999.90;999.90;;;5.90;99.90;;;;;;5081237;28;20171;-81
2021/01/20 06:25:25;;;;;;;1999.90;999.90;;;6.00;99.90;;;;;;5080678;28;20155;-81
2021/01/20 06:28:07;;;;;;;1999.90;999.90;;;6.10;99.90;;;;;;5081467;28;20277;-81
2021/01/20 06:30:49;;;;;;;1999.90;999.90;;;6.30;99.90;;;;;;5079960;28;20175;-81
2021/01/20 06:33:16;;;;;;;1999.90;999.90;;;6.40;99.90;;;;;;5080285;28;20171;-81
2021/01/20 06:35:51;;;;;;;1999.90;999.90;;;6.50;99.90;;;;;;5080636;28;20203;-81
2021/01/20 06:38:29;;;;;;;1999.90;999.90;;;6.40;99.90;;;;;;5080320;28;20187;-82
2021/01/20 06:40:58;;;;;;;1999.90;999.90;;;6.40;99.90;;;;;;5080647;28;20159;-81
2021/01/20 06:43:41;;;;;;;1999.90;999.90;;;6.30;99.90;;;;;;5080128;28;20156;-81
2021/01/20 06:46:22;;;;;;;1999.90;999.90;;;6.40;99.90;;;;;;5078881;28;20218;-81
2021/01/20 06:48:53;;;;;;;1999.90;999.90;;;6.30;99.90;;;;;;5079981;28;20152;-81
2021/01/20 06:51:20;;;;;;;1999.90;999.90;;;6.40;99.90;;;;;;5080401;28;20163;-81
2021/01/20 06:54:12;;;;;;;1999.90;999.90;;;6.40;99.90;;;;;;5080544;28;20168;-81
2021/01/20 06:56:52;;;;;;;1999.90;999.90;;;6.50;99.90;;;;;;5080287;28;20172;-81
2021/01/20 06:59:19;;;;;;;1999.90;999.90;;;6.60;99.90;;;;;;5080829;28;20163;-81
2021/01/20 07:02:05;;;;;;;1999.90;999.90;;;6.60;99.90;;;;;;5079661;28;20179;-81
2021/01/20 07:04:37;;;;;;;1999.90;999.90;;;6.60;99.90;;;;;;5077453;28;20198;-81
2021/01/20 07:07:09;;;;;;;1999.90;999.90;;;6.50;99.90;;;;;;5079202;28;20535;-81
2021/01/20 07:09:50;;;;;;;1999.90;999.90;;;6.50;99.90;;;;;;5078748;28;20167;-81
2021/01/20 07:12:23;;;;;;;1999.90;999.90;;;6.60;99.90;;;;;;5078820;28;20168;-80
2021/01/20 07:14:53;;;;;;;1999.90;999.90;;;6.60;99.90;;;;;;5080566;28;20187;-81
2021/01/20 07:17:19;;;;;;;1999.90;999.90;;;6.60;99.90;;;;;;5079636;28;20160;-81
2021/01/20 07:19:47;;;;;;;1999.90;999.90;;;6.60;99.90;;;;;;5078670;28;20160;-81
2021/01/20 07:22:17;;;;;;;1999.90;999.90;;;6.60;99.90;;;;;;5078297;28;20171;-81
2021/01/20 07:24:43;;;;;;;1999.90;999.90;;;6.50;99.90;;;;;;5077243;28;20175;-81
2021/01/20 07:27:13;;;;;;;1999.90;999.90;;;6.60;99.90;;;;;;5079256;28;20160;-81
2021/01/20 07:29:45;;;;;;;1999.90;999.90;;;6.70;99.90;;;;;;5077329;28;20585;-81
2021/01/20 07:32:11;;;;;;;1999.90;999.90;;;6.70;99.90;;;;;;5078397;28;20246;-80
2021/01/20 07:34:57;;;;;;;;;;;;;;;;;;;;;
2021/01/20 07:38:13;;;;;;;1999.90;999.90;;;6.60;99.90;;;;;;5070339;28;20255;-78
2021/01/20 07:41:24;;;;;;;;;;;;;;;;;;;;;
2021/01/20 07:44:07;;;;;;;1999.90;999.90;;;6.70;99.90;;;;;;5077619;28;20682;-80
2021/01/20 07:46:42;;;;;;;1999.90;999.90;;;6.80;99.90;;;;;;5078529;28;20170;-80
2021/01/20 07:49:22;;;;;;;1999.90;999.90;;;6.90;99.90;;;;;;5078835;28;20148;-80
2021/01/20 07:52:06;;;;;;;1999.90;999.90;;;6.90;99.90;;;;;;5077423;28;20686;-82
2021/01/20 07:54:36;;;;;;;1999.90;999.90;;;7.00;99.90;;;;;;5079731;28;20573;-82
2021/01/20 07:57:22;;;;;;;1999.90;999.90;;;7.10;99.90;;;;;;5079311;28;20162;-81
2021/01/20 08:00:08;;;;;;;1999.90;999.90;;;7.00;99.90;;;;;;5078286;28;20206;-81
2021/01/20 08:02:44;;;;;;;1999.90;999.90;;;7.00;99.90;;;;;;5078639;28;20181;-81
2021/01/20 08:05:10;;;;;;;1999.90;999.90;;;7.00;99.90;;;;;;5079069;28;20175;-82
2021/01/20 08:07:36;;;;;;;1999.90;999.90;;;7.10;99.90;;;;;;5080114;28;20197;-81
2021/01/20 08:10:03;;;;;;;1999.90;999.90;;;7.10;99.90;;;;;;5079050;28;20637;-82
2021/01/20 08:12:31;;;;;;;1999.90;999.90;;;7.30;99.90;;;;;;5080180;28;20175;-82
2021/01/20 08:14:57;;;;;;;1999.90;999.90;;;7.40;99.90;;;;;;5079165;28;20596;-82
2021/01/20 08:17:24;;;;;;;1999.90;999.90;;;7.40;99.90;;;;;;5079277;28;20156;-81
2021/01/20 08:19:58;;;;;;;1999.90;999.90;;;7.40;99.90;;;;;;5080098;28;20163;-82
2021/01/20 08:22:24;;;;;;;1999.90;999.90;;;7.40;99.90;;;;;;5080602;28;20156;-80
2021/01/20 08:24:51;;;;;;;1999.90;999.90;;;7.40;99.90;;;;;;5078527;28;20171;-81
2021/01/20 08:27:31;;;;;;;1999.90;999.90;;;7.30;99.90;;;;;;5079166;28;20175;-80
2021/01/20 08:29:58;;;;;;;1999.90;999.90;;;7.20;99.90;;;;;;5079773;28;20152;-80
2021/01/20 08:32:24;;;;;;;1999.90;999.90;;;7.10;99.90;;;;;;5079299;28;20159;-81
2021/01/20 08:34:52;;;;;;;1999.90;999.90;;;7.10;99.90;;;;;;5078642;28;20184;-81
2021/01/20 08:37:39;;;;;;;1999.90;999.90;;;7.10;99.90;;;;;;5076366;28;20191;-81
2021/01/20 08:40:07;;;;;;;1999.90;999.90;;;7.10;99.90;;;;;;5077013;28;20156;-80
2021/01/20 08:42:35;;;;;;;1999.90;999.90;;;7.00;99.90;;;;;;5079889;28;20160;-80
2021/01/20 08:45:19;;;;;;;1999.90;999.90;;;7.00;99.90;;;;;;5077800;28;20554;-81
2021/01/20 08:47:57;;;;;;;1999.90;999.90;;;7.00;99.90;;;;;;5077678;28;20168;-82
2021/01/20 08:50:29;;;;;;;1999.90;999.90;;;6.90;99.90;;;;;;5079054;28;20156;-81
2021/01/20 08:52:59;;;;;;;1999.90;999.90;;;6.90;99.90;;;;;;5078909;28;20246;-80
2021/01/20 08:55:48;;;;;;;1999.90;999.90;;;6.90;99.90;;;;;;5079358;28;20262;-81
2021/01/20 08:58:28;;;;;;;1999.90;999.90;;;7.00;99.90;;;;;;5072711;28;20172;-81
2021/01/20 09:00:54;;;;;;;1999.90;999.90;;;7.00;99.90;;;;;;5078488;28;20156;-80
2021/01/20 09:03:29;;;;;;;1999.90;999.90;;;7.00;99.90;;;;;;5077232;28;20176;-82
2021/01/20 09:05:56;;;;;;;1999.90;999.90;;;7.00;99.90;;;;;;5077968;28;20162;-81
2021/01/20 09:08:24;;;;;;;1999.90;999.90;;;7.10;99.90;;;;;;5078124;28;20672;-81
2021/01/20 09:10:51;;;;;;;1999.90;999.90;;;7.10;99.90;;;;;;5080141;28;20630;-81
2021/01/20 09:13:17;;;;;;;1999.90;999.90;;;7.00;99.90;;;;;;5079592;28;20164;-81
2021/01/20 09:15:47;;;;;;;1999.90;999.90;;;7.00;99.90;;;;;;5081482;28;20195;-81
2021/01/20 09:18:14;;;;;;;1999.90;999.90;;;7.10;99.90;;;;;;5081369;28;20164;-81
2021/01/20 09:20:39;;;;;;;1999.90;999.90;;;7.00;99.90;;;;;;5081953;28;20182;-81
2021/01/20 09:23:06;;;;;;;1999.90;999.90;;;7.10;99.90;;;;;;5080560;28;20168;-81
2021/01/20 09:25:32;;;;;;;1999.90;999.90;;;7.10;99.90;;;;;;5082304;28;20163;-81
2021/01/20 09:27:58;;;;;;;1999.90;999.90;;;7.10;99.90;;;;;;5079834;28;20228;-81
2021/01/20 09:30:23;;;;;;;1999.90;999.90;;;7.20;99.90;;;;;;5081008;28;20183;-81
2021/01/20 09:32:49;;;;;;;1999.90;999.90;;;7.20;99.90;;;;;;5081480;28;20398;-81
2021/01/20 09:35:16;;;;;;;1999.90;999.90;;;7.30;99.90;;;;;;5081552;28;20441;-81
2021/01/20 09:37:43;;;;;;;1999.90;999.90;;;7.40;99.90;;;;;;5079327;28;20410;-80
2021/01/20 09:40:11;;;;;;;1999.90;999.90;;;7.40;99.90;;;;;;5081928;28;20155;-81
2021/01/20 09:42:38;;;;;;;1999.90;999.90;;;7.50;99.90;;;;;;5082039;28;20163;-81
2021/01/20 09:45:06;;;;;;;1999.90;999.90;;;7.50;99.90;;;;;;5081077;28;20164;-81
2021/01/20 09:47:31;;;;;;;1999.90;999.90;;;7.60;99.90;;;;;;5080881;28;20206;-82
2021/01/20 09:49:57;;;;;;;1999.90;999.90;;;7.60;99.90;;;;;;5082002;28;20168;-81
2021/01/20 09:52:26;;;;;;;1999.90;999.90;;;7.70;99.90;;;;;;5080927;28;20171;-81
2021/01/20 09:54:55;;;;;;;1999.90;999.90;;;7.70;99.90;;;;;;5079797;28;20452;-81
2021/01/20 09:57:22;;;;;;;1999.90;999.90;;;7.80;99.90;;;;;;5081322;28;20619;-81
2021/01/20 09:59:48;;;;;;;1999.90;999.90;;;7.80;99.90;;;;;;5081073;28;20164;-81
2021/01/20 10:02:14;;;;;;;1999.90;999.90;;;7.80;99.90;;;;;;5080172;28;20171;-81
2021/01/20 10:04:41;;;;;;;1999.90;999.90;;;8.00;99.90;;;;;;5080308;28;20184;-81
2021/01/20 10:07:09;;;;;;;1999.90;999.90;;;8.00;99.90;;;;;;5080864;28;20168;-81
2021/01/20 10:09:37;;;;;;;1999.90;999.90;;;8.00;99.90;;;;;;5080536;28;20191;-80
2021/01/20 10:12:04;;;;;;;1999.90;999.90;;;8.00;99.90;;;;;;5081539;28;20619;-81
2021/01/20 10:14:30;;;;;;;1999.90;999.90;;;8.00;99.90;;;;;;5081354;28;20199;-81
2021/01/20 10:16:56;;;;;;;1999.90;999.90;;;8.00;99.90;;;;;;5081901;28;20683;-81
2021/01/20 10:19:21;;;;;;;1999.90;999.90;;;8.10;99.90;;;;;;5081611;28;20164;-81
2021/01/20 10:21:47;;;;;;;1999.90;999.90;;;8.20;99.90;;;;;;5081189;28;20171;-81
2021/01/20 10:24:12;;;;;;;1999.90;999.90;;;8.20;99.90;;;;;;5081520;28;20647;-80
2021/01/20 10:26:39;;;;;;;1999.90;999.90;;;8.30;99.90;;;;;;5082560;28;20164;-81
2021/01/20 10:29:06;;;;;;;1999.90;999.90;;;8.40;99.90;;;;;;5082124;28;20200;-81
2021/01/20 10:31:35;;;;;;;1999.90;999.90;;;8.40;99.90;;;;;;5081535;28;20246;-81
2021/01/20 10:34:01;;;;;;;1999.90;999.90;;;8.50;99.90;;;;;;5079867;28;20251;-81
2021/01/20 10:36:27;;;;;;;1999.90;999.90;;;8.50;99.90;;;;;;5080726;28;20190;-81
2021/01/20 10:38:53;;;;;;;1999.90;999.90;;;8.50;99.90;;;;;;5080950;28;20399;-81
2021/01/20 10:41:23;;;;;;;1999.90;999.90;;;8.60;99.90;;;;;;5080722;28;20179;-81
2021/01/20 10:43:50;;;;;;;1999.90;999.90;;;8.70;99.90;;;;;;5154614;22;20211;-84
2021/01/20 10:46:25;;;;;;;1999.90;999.90;;;8.70;99.90;;;;;;5077506;28;20178;-84
2021/01/20 10:48:58;;;;;;;1999.90;999.90;;;8.80;99.90;;;;;;5077960;28;20162;-84
2021/01/20 10:51:38;;;;;;;1999.90;999.90;;;8.80;99.90;;;;;;5077338;28;20538;-84
2021/01/20 10:54:16;;;;;;;1999.90;999.90;;;8.80;99.90;;;;;;5095877;28;20155;-86
2021/01/20 11:00:11;;;;;;;1999.90;999.90;;;8.80;99.90;;;;;;5014064;28;20170;-88
2021/01/20 11:03:46;;;;;;;;;;;;;;;;;;;;;
2021/01/20 11:07:12;;;;;;;1999.90;999.90;;;8.90;99.90;;;;;;5012775;28;20178;-87
2021/01/20 11:13:55;;;;;;;1999.90;999.90;;;9.00;99.90;;;;;;5013194;28;20518;-87
2021/01/20 11:16:21;;;;;;;1999.90;999.90;;;8.80;99.90;;;;;;4959351;28;20189;-88
2021/01/20 11:18:52;;;;;;;1999.90;999.90;;;8.70;99.90;;;;;;4996130;28;20596;-87
2021/01/20 11:24:18;;;;;;;1999.90;999.90;;;8.70;99.90;;;;;;5012885;28;20665;-87
2021/01/20 11:26:45;;;;;;;1999.90;999.90;;;8.80;99.90;;;;;;5013004;28;20162;-87
2021/01/20 11:29:14;;;;;;;1999.90;999.90;;;8.80;99.90;;;;;;5041732;28;20186;-87
2021/01/20 11:31:40;;;;;;;1999.90;999.90;;;8.80;99.90;;;;;;5093918;28;20613;-87
2021/01/20 11:34:17;;;;;;;;;;;;;;;;;;;;;
2021/01/20 11:36:43;;;;;;;1999.90;999.90;;;8.90;99.90;;;;;;5094310;28;20174;-87
2021/01/20 11:39:26;;;;;;;1999.90;999.90;;;8.90;99.90;;;;;;5093939;28;20234;-87
2021/01/20 11:42:11;;;;;;;1999.90;999.90;;;8.90;99.90;;;;;;5093997;28;20167;-87
2021/01/20 11:45:06;;;;;;;1999.90;999.90;;;8.90;99.90;;;;;;5075705;28;20190;-86
2021/01/20 11:47:43;;;;;;;1999.90;999.90;;;8.80;99.90;;;;;;5073435;28;20182;-87
2021/01/20 11:50:58;;;;;;;1999.90;999.90;;;8.80;99.90;;;;;;5093818;28;20234;-86
2021/01/20 11:53:27;;;;;;;1999.90;999.90;;;8.80;99.90;;;;;;5082819;28;20593;-85
2021/01/20 11:56:18;;;;;;;1999.90;999.90;;;8.80;99.90;;;;;;5067597;28;20206;-85
2021/01/20 11:58:53;;;;;;;1999.90;999.90;;;8.80;99.90;;;;;;5038145;28;20167;-85
2021/01/20 12:01:39;;;;;;;1999.90;999.90;;;8.80;99.90;;;;;;5075523;28;20250;-85
2021/01/20 12:04:06;;;;;;;1999.90;999.90;;;8.80;99.90;;;;;;5070662;28;20262;-86
2021/01/20 12:07:05;;;;;;;1999.90;999.90;;;8.80;99.90;;;;;;5093866;28;20163;-85
2021/01/20 12:09:54;;;;;;;1999.90;999.90;;;8.80;99.90;;;;;;5061229;28;20171;-86
2021/01/20 12:12:40;;;;;;;1999.90;999.90;;;8.80;99.90;;;;;;5082684;28;20186;-86
2021/01/20 12:15:06;;;;;;;1999.90;999.90;;;8.70;99.90;;;;;;5075234;28;20233;-86
2021/01/20 12:17:36;;;;;;;1999.90;999.90;;;8.70;99.90;;;;;;5093331;28;20680;-85
2021/01/20 12:20:27;;;;;;;1999.90;999.90;;;8.70;99.90;;;;;;5074887;28;20703;-87
2021/01/20 12:22:53;;;;;;;1999.90;999.90;;;8.70;99.90;;;;;;5075488;28;20562;-88
2021/01/20 12:25:21;;;;;;;1999.90;999.90;;;8.70;99.90;;;;;;5093427;28;20173;-87
2021/01/20 12:28:14;;;;;;;1999.90;999.90;;;8.70;99.90;;;;;;5075332;28;20170;-87
2021/01/20 12:30:45;;;;;;;1999.90;999.90;;;8.70;99.90;;;;;;5094126;28;20147;-85
2021/01/20 12:33:16;;;;;;;1999.90;999.90;;;8.70;99.90;;;;;;5075314;28;20174;-85
2021/01/20 12:35:45;;;;;;;1999.90;999.90;;;8.60;99.90;;;;;;5075539;28;20665;-85
2021/01/20 12:38:23;;;;;;;1999.90;999.90;;;8.60;99.90;;;;;;5075774;28;20199;-85
2021/01/20 12:40:56;;;;;;;1999.90;999.90;;;8.60;99.90;;;;;;5093484;28;20234;-85
2021/01/20 12:43:46;;;;;;;1999.90;999.90;;;8.70;99.90;;;;;;5076733;28;20159;-85
2021/01/20 12:46:28;;;;;;;1999.90;999.90;;;8.70;99.90;;;;;;5079588;28;20541;-85
2021/01/20 12:51:55;;;;;;;1999.90;999.90;;;8.70;99.90;;;;;;5097746;28;20622;-85